Lexington, VA

5:56 PM EDT on October 21, 2014 (GMT -0400)
Airport Acres | Change Station
CLOSE
Current Station
Personal Weather Station
Location: Lexington, VA
Elevation: 1158 ft
Nearby Weather Stations

Elev 1158 ft 37.76 °N, 79.47 °W | Updated 1 minute ago

Mostly Cloudy
Mostly Cloudy
57.7 °F
Feels Like 57.7 °F
N
4.7
Wind Variable Wind from West

Today
High -- | Low -- °F
--% Chance of Precip.
Yesterday
High -- | Low -- °F
Precip. -- in
7:31 AM 6:32 PM
Waning Crescent, 4% visible
Pressure 29.86 in
Visibility 10.0 miles
Clouds Clear
Dew Point 48 °F
Humidity 70%
Rainfall 0.00 in
Snow Depth Not available.
UV 1 out of 12
Pollen 1.90 out of 12
Air Quality Not available.
Flu Activity Local Activity
METAR KLYH 212054Z 31009G16KT 10SM CLR 16/07 A2987 RMK AO2 SLP112 T01610067 55001

More Conditions Fewer Conditions

Pressure 29.86 in
Visibility 10.0 miles
Clouds Clear
Dew Point 48 °F
Humidity 70%
Rainfall 0.00 in
Snow Depth Not available.
UV 1 out of 12
Pollen 1.90 out of 12
Air Quality Not available.
Flu Activity Local Activity
METAR KLYH 212054Z 31009G16KT 10SM CLR 16/07 A2987 RMK AO2 SLP112 T01610067 55001

More Conditions Fewer Conditions

10-Day Weather Forecast

Almanac

Astronomy

Oct. 21, 2014 Rise Set
Actual Time 7:31 AM EDT 6:32 PM EDT
Civil Twilight 7:05 AM EDT 6:58 PM EDT
Nautical Twilight 6:34 AM EDT 7:29 PM EDT
Astronomical Twilight 6:04 AM EDT 7:59 PM EDT
Moon 5:16 AM EDT 5:23 PM EDT
Length of Visible Light 11h 53m
Length of Day
11h 00m
Tomorrow will be 2m 17s shorter.
Waning Crescent, 4% of the Moon is Illuminated
Today
Waning Crescent
Oct 23
New
Oct 30
First Quarter
Nov 6
Full
Nov 14
Last Quarter

Today's Extremes

State Highs State Lows

Community

WunderPhotos

Upload Photos

1,763,785 photos uploaded!

Nearby

Snow Depth

Station Depth Elevation
No new snow has been reported.

Earthquake Activity

City Distance Mag. Time & Date
No recent earthquake activity has been reported nearby.
Minimum magnitude displayed is 2.5.

Coastal Water Temperatures

Place Temperature
No Stations Reporting

Nearby Weather Stations